createdAt,value
2023-02-24T00:02:22.227Z,78.59
2023-02-24T00:07:24.236Z,78.05
2023-02-24T00:12:26.237Z,78.02
2023-02-24T00:17:30.722Z,78.43
2023-02-24T00:22:32.773Z,78.16
2023-02-24T00:27:35.447Z,78.29
2023-02-24T00:32:37.743Z,78.82
2023-02-24T00:37:39.848Z,78.14
2023-02-24T00:42:42.898Z,78.53
2023-02-24T00:47:44.982Z,78.33
2023-02-24T00:52:48.679Z,78.44
2023-02-24T00:57:51.175Z,78.58
2023-02-24T01:02:53.207Z,78.55
2023-02-24T01:07:55.269Z,77.92
2023-02-24T01:12:57.342Z,78.67
2023-02-24T01:17:59.408Z,78.04
2023-02-24T01:23:03.618Z,77.99
2023-02-24T01:28:05.834Z,78.15
2023-02-24T01:33:08.438Z,78.43
2023-02-24T01:38:11.807Z,78.68
2023-02-24T01:43:14.021Z,78.44
2023-02-24T01:48:17.560Z,78.26
2023-02-24T01:53:20.226Z,78.44
2023-02-24T01:58:33.993Z,78.56
2023-02-24T02:03:42.168Z,78.25
2023-02-24T02:08:47.673Z,78.52
2023-02-24T02:13:52.021Z,77.76
2023-02-24T02:19:09.770Z,78.60
2023-02-24T02:24:38.047Z,78.57
2023-02-24T02:30:13.933Z,78.72
2023-02-24T02:35:46.797Z,78.50
2023-02-24T02:40:48.590Z,78.71
2023-02-24T02:45:59.880Z,78.65
2023-02-24T02:51:11.590Z,78.62
2023-02-24T02:56:24.501Z,79.02
2023-02-24T03:01:34.171Z,78.26
2023-02-24T03:06:48.047Z,78.43
2023-02-24T03:11:56.236Z,78.29
2023-02-24T03:16:59.814Z,78.17
2023-02-24T03:22:36.445Z,78.74
2023-02-24T03:27:44.788Z,78.99
2023-02-24T03:32:56.300Z,79.12
2023-02-24T03:37:59.856Z,79.67
2023-02-24T03:43:08.533Z,79.81
2023-02-24T03:48:14.970Z,80.37
2023-02-24T03:53:50.104Z,80.14
2023-02-24T03:59:01.626Z,80.20
2023-02-24T04:04:33.598Z,80.21
2023-02-24T04:09:57.927Z,80.25
2023-02-24T04:15:26.508Z,80.12
2023-02-24T04:20:33.314Z,80.24
2023-02-24T04:25:36.140Z,79.97
2023-02-24T04:30:48.714Z,80.20
2023-02-24T04:35:51.599Z,79.76
2023-02-24T04:40:53.774Z,79.96
2023-02-24T04:45:56.428Z,80.17
2023-02-24T04:51:06.723Z,79.63
2023-02-24T04:56:09.439Z,80.37
2023-02-24T05:01:11.890Z,79.67
2023-02-24T05:06:16.847Z,79.94
2023-02-24T05:11:19.686Z,80.08
2023-02-24T05:16:22.536Z,79.62
2023-02-24T05:21:36.470Z,79.47
2023-02-24T05:26:42.064Z,79.36
2023-02-24T05:31:44.400Z,80.05
2023-02-24T05:36:47.322Z,79.42
2023-02-24T05:41:50.619Z,80.24
2023-02-24T05:47:00.879Z,79.63
2023-02-24T05:52:10.354Z,79.80
2023-02-24T05:57:21.474Z,79.86
2023-02-24T06:02:28.014Z,80.09
2023-02-24T06:07:34.746Z,80.09
2023-02-24T06:12:40.157Z,79.65
2023-02-24T06:17:42.127Z,79.61
2023-02-24T06:22:44.201Z,79.97
2023-02-24T06:27:46.295Z,79.42
2023-02-24T06:32:49.485Z,80.08
2023-02-24T06:37:51.587Z,79.79
2023-02-24T06:42:57.395Z,80.30
2023-02-24T06:47:59.365Z,79.89
2023-02-24T06:53:03.108Z,79.84
2023-02-24T06:58:05.097Z,79.82
2023-02-24T07:03:17.066Z,79.37
2023-02-24T07:08:23.226Z,79.66
2023-02-24T07:13:29.015Z,79.89
2023-02-24T07:18:31.307Z,80.25
2023-02-24T07:23:33.343Z,80.09
2023-02-24T07:28:35.386Z,80.46
2023-02-24T07:33:39.193Z,80.23
2023-02-24T07:38:43.111Z,80.36
2023-02-24T07:43:46.494Z,80.18
2023-02-24T07:48:48.534Z,79.86
2023-02-24T07:53:59.320Z,80.29
2023-02-24T07:59:08.363Z,80.28
2023-02-24T08:04:13.007Z,80.22
2023-02-24T08:09:42.649Z,80.55
2023-02-24T08:14:51.242Z,80.63
2023-02-24T08:20:21.351Z,80.75
2023-02-24T08:25:36.065Z,80.91
2023-02-24T08:30:46.776Z,80.90
2023-02-24T08:36:01.562Z,80.89
2023-02-24T08:41:05.254Z,80.88
2023-02-24T08:46:21.608Z,81.54
2023-02-24T08:51:29.161Z,80.61
2023-02-24T08:56:35.235Z,81.01
2023-02-24T09:01:40.554Z,80.83
2023-02-24T09:07:10.843Z,81.11
2023-02-24T09:12:29.144Z,81.03
2023-02-24T09:17:41.512Z,81.30
2023-02-24T09:22:57.563Z,81.10
2023-02-24T09:28:17.656Z,81.40
2023-02-24T09:33:37.483Z,81.01
2023-02-24T09:39:00.100Z,81.17
2023-02-24T09:44:08.023Z,81.44
2023-02-24T09:49:17.817Z,81.66
2023-02-24T09:54:25.029Z,82.24
2023-02-24T09:59:36.641Z,82.48
2023-02-24T10:05:07.647Z,82.33
2023-02-24T10:10:39.588Z,82.15
2023-02-24T10:15:58.801Z,82.02
2023-02-24T10:21:30.985Z,81.85
2023-02-24T10:27:00.659Z,82.38
2023-02-24T10:32:24.260Z,82.46
2023-02-24T10:37:29.701Z,82.52
2023-02-24T10:42:34.664Z,82.44
2023-02-24T10:47:36.675Z,82.47
2023-02-24T10:53:06.755Z,82.58
2023-02-24T10:58:22.929Z,82.24
2023-02-24T11:03:41.910Z,82.42
2023-02-24T11:08:54.959Z,82.00
2023-02-24T11:14:21.146Z,81.94
2023-02-24T11:19:23.258Z,82.04
2023-02-24T11:24:26.042Z,82.52
2023-02-24T11:30:02.032Z,82.12
2023-02-24T11:35:12.638Z,82.41
2023-02-24T11:40:24.100Z,82.17
2023-02-24T11:45:29.794Z,81.85
2023-02-24T11:51:04.557Z,82.33
2023-02-24T11:56:28.230Z,82.04
2023-02-24T12:01:37.910Z,81.39
2023-02-24T12:06:48.775Z,81.58
2023-02-24T12:12:18.128Z,81.75
2023-02-24T12:17:37.164Z,81.46
2023-02-24T12:22:57.708Z,81.48
2023-02-24T12:28:11.530Z,81.49
2023-02-24T12:33:31.991Z,81.38
2023-02-24T12:39:07.189Z,81.73
2023-02-24T12:44:27.145Z,81.32
2023-02-24T12:49:54.623Z,81.57
2023-02-24T12:55:09.392Z,81.20
2023-02-24T13:00:22.015Z,81.08
2023-02-24T13:05:44.283Z,80.90
2023-02-24T13:11:16.308Z,80.73
2023-02-24T13:16:30.105Z,81.23
2023-02-24T13:21:33.987Z,80.73
2023-02-24T13:26:36.088Z,80.61
2023-02-24T13:31:50.735Z,80.38
2023-02-24T13:36:53.167Z,80.35
2023-02-24T13:42:20.621Z,80.21
2023-02-24T13:47:43.937Z,79.84
2023-02-24T13:53:09.316Z,80.03
2023-02-24T13:58:35.803Z,79.91
2023-02-24T14:03:41.610Z,79.74
2023-02-24T14:08:55.911Z,79.36
2023-02-24T14:13:59.474Z,79.17
2023-02-24T14:19:03.420Z,79.16
2023-02-24T14:24:13.693Z,78.94
2023-02-24T14:29:23.252Z,78.76
2023-02-24T14:34:28.337Z,78.82
2023-02-24T14:39:32.928Z,78.54
2023-02-24T14:44:41.983Z,78.58
2023-02-24T14:50:03.477Z,78.82
2023-02-24T14:55:19.080Z,78.65
2023-02-24T15:00:25.862Z,78.63
2023-02-24T15:05:28.475Z,78.28
2023-02-24T15:10:32.302Z,78.43
2023-02-24T15:15:39.596Z,78.25
2023-02-24T15:20:42.023Z,78.17
2023-02-24T15:25:46.924Z,78.20
2023-02-24T15:31:16.895Z,77.93
2023-02-24T15:36:22.867Z,78.20
2023-02-24T15:41:26.049Z,78.07
2023-02-24T15:46:34.776Z,77.66
2023-02-24T15:51:46.675Z,77.98
2023-02-24T15:56:49.431Z,77.79
2023-02-24T16:01:54.908Z,77.35
2023-02-24T16:06:58.614Z,77.54
2023-02-24T16:12:02.946Z,77.68
2023-02-24T16:17:09.663Z,76.98
2023-02-24T16:22:12.157Z,77.29
2023-02-24T16:27:17.457Z,77.06
2023-02-24T16:32:22.518Z,77.05
2023-02-24T16:37:29.596Z,76.80
2023-02-24T16:42:32.177Z,77.29
2023-02-24T16:47:35.688Z,76.99
2023-02-24T16:52:38.078Z,76.40
2023-02-24T16:57:41.205Z,76.26
2023-02-24T17:02:45.679Z,76.57
2023-02-24T17:07:50.556Z,76.06
2023-02-24T17:12:53.282Z,76.11
2023-02-24T17:17:55.798Z,76.47
2023-02-24T17:22:58.610Z,76.07
2023-02-24T17:28:00.538Z,75.33
2023-02-24T17:33:03.541Z,75.73
2023-02-24T17:38:15.826Z,76.29
2023-02-24T17:43:18.474Z,75.92
2023-02-24T17:48:22.840Z,76.05
2023-02-24T17:53:28.422Z,76.05
2023-02-24T17:58:31.808Z,76.25
2023-02-24T18:03:36.605Z,75.59
2023-02-24T18:08:40.831Z,75.83
2023-02-24T18:13:44.330Z,76.35
2023-02-24T18:18:47.663Z,76.27
2023-02-24T18:23:50.603Z,75.91
2023-02-24T18:28:54.180Z,76.12
2023-02-24T18:33:58.485Z,75.98
2023-02-24T18:39:09.138Z,76.22
2023-02-24T18:44:12.789Z,76.82
2023-02-24T18:49:15.748Z,76.43
2023-02-24T18:54:23.849Z,76.49
2023-02-24T18:59:26.974Z,77.05
2023-02-24T19:04:29.745Z,76.73
2023-02-24T19:09:34.294Z,76.11
2023-02-24T19:14:38.036Z,76.56
2023-02-24T19:19:41.106Z,76.76
2023-02-24T19:24:44.354Z,76.62
2023-02-24T19:29:47.474Z,76.66
2023-02-24T19:34:51.628Z,76.90
2023-02-24T19:39:55.892Z,76.84
2023-02-24T19:45:00.592Z,77.83
2023-02-24T19:50:03.599Z,76.98
2023-02-24T19:55:08.990Z,77.32
2023-02-24T20:00:13.172Z,77.41
2023-02-24T20:05:18.967Z,78.00
2023-02-24T20:10:22.128Z,78.32
2023-02-24T20:15:26.092Z,78.22
2023-02-24T20:20:29.381Z,79.15
2023-02-24T20:25:32.164Z,78.98
2023-02-24T20:30:37.341Z,78.98
2023-02-24T20:35:42.041Z,79.54
2023-02-24T20:40:46.169Z,79.49
2023-02-24T20:45:48.662Z,79.52
2023-02-24T20:50:51.917Z,79.79
2023-02-24T20:56:03.965Z,79.61
2023-02-24T21:01:08.896Z,79.78
2023-02-24T21:06:13.828Z,79.43
2023-02-24T21:11:16.892Z,79.46
2023-02-24T21:16:21.354Z,79.41
2023-02-24T21:21:24.013Z,79.71
2023-02-24T21:26:27.258Z,80.36
2023-02-24T21:31:31.224Z,79.84
2023-02-24T21:36:34.147Z,79.54
2023-02-24T21:41:36.266Z,79.55
2023-02-24T21:46:38.729Z,79.65
2023-02-24T21:51:42.386Z,79.41
2023-02-24T21:56:44.798Z,79.81
2023-02-24T22:01:47.582Z,79.96
2023-02-24T22:06:49.612Z,79.70
2023-02-24T22:11:52.091Z,79.76
2023-02-24T22:16:54.122Z,80.05
2023-02-24T22:21:59.318Z,80.00
2023-02-24T22:27:01.439Z,80.01
2023-02-24T22:32:05.356Z,79.92
2023-02-24T22:37:07.939Z,79.84
2023-02-24T22:42:10.031Z,80.18
2023-02-24T22:47:12.187Z,80.42
2023-02-24T22:52:17.033Z,80.07
2023-02-24T22:57:19.113Z,80.25
2023-02-24T23:02:21.156Z,80.52
2023-02-24T23:07:23.220Z,81.07
2023-02-24T23:12:27.269Z,80.74
2023-02-24T23:17:29.345Z,80.43
2023-02-24T23:22:31.443Z,80.64
2023-02-24T23:27:33.496Z,81.07
2023-02-24T23:32:36.991Z,80.77
2023-02-24T23:37:40.254Z,80.71
2023-02-24T23:42:43.010Z,80.81
2023-02-24T23:47:45.170Z,80.55
2023-02-24T23:52:47.476Z,80.91
2023-02-24T23:57:49.529Z,81.29
